createdAt,value
2024-04-15T00:01:32.337Z,15.23
2024-04-15T00:03:59.220Z,15.00
2024-04-15T00:06:26.058Z,14.98
2024-04-15T00:08:53.895Z,15.50
2024-04-15T00:11:21.068Z,12.13
2024-04-15T00:13:47.873Z,12.38
2024-04-15T00:16:14.919Z,9.68
2024-04-15T00:18:42.056Z,8.70
2024-04-15T00:21:12.205Z,7.38
2024-04-15T00:23:39.316Z,3.75
2024-04-15T00:26:06.323Z,3.30
2024-04-15T00:28:33.532Z,2.15
2024-04-15T00:31:00.915Z,1.60
2024-04-15T00:33:28.104Z,1.77
2024-04-15T00:35:55.561Z,1.20
2024-04-15T00:38:22.847Z,1.38
2024-04-15T00:40:49.791Z,1.58
2024-04-15T00:43:17.087Z,1.40
2024-04-15T00:45:44.515Z,1.33
2024-04-15T00:48:16.734Z,1.48
2024-04-15T00:50:46.731Z,1.30
2024-04-15T00:53:16.486Z,1.40
2024-04-15T00:55:48.411Z,1.30
2024-04-15T00:58:17.340Z,1.40
2024-04-15T01:00:45.413Z,1.30
2024-04-15T01:03:14.037Z,1.58
2024-04-15T01:05:41.100Z,1.45
2024-04-15T01:08:08.965Z,1.45
2024-04-15T01:10:46.398Z,1.13
2024-04-15T01:13:22.264Z,2.10
2024-04-15T01:15:56.210Z,1.90
2024-04-15T01:18:23.234Z,1.60
2024-04-15T01:20:51.634Z,1.52
2024-04-15T01:23:23.538Z,1.60
2024-04-15T01:25:51.303Z,1.63
2024-04-15T01:28:21.262Z,1.60
2024-04-15T01:30:49.342Z,1.92
2024-04-15T01:33:16.792Z,1.58
2024-04-15T01:35:43.654Z,1.30
2024-04-15T01:38:10.563Z,1.45
2024-04-15T01:40:37.588Z,1.30
2024-04-15T01:43:04.684Z,1.52
2024-04-15T01:45:31.791Z,1.73
2024-04-15T01:47:59.463Z,1.60
2024-04-15T01:50:26.491Z,1.73
2024-04-15T01:52:53.611Z,1.50
2024-04-15T01:55:20.560Z,1.77
2024-04-15T01:57:47.371Z,2.00
2024-04-15T02:00:14.460Z,2.08
2024-04-15T02:02:41.611Z,1.45
2024-04-15T02:05:09.165Z,2.10
2024-04-15T02:07:37.661Z,1.80
2024-04-15T02:10:07.055Z,1.90
2024-04-15T02:12:34.133Z,1.70
2024-04-15T02:15:01.153Z,2.28
2024-04-15T02:17:28.212Z,1.90
2024-04-15T02:19:55.220Z,2.35
2024-04-15T02:22:22.234Z,1.98
2024-04-15T02:24:49.101Z,1.75
2024-04-15T02:27:15.906Z,2.25
2024-04-15T02:29:42.782Z,2.08
2024-04-15T02:32:09.814Z,1.95
2024-04-15T02:34:36.798Z,2.28
2024-04-15T02:37:03.824Z,2.25
2024-04-15T02:39:30.722Z,2.03
2024-04-15T02:41:57.462Z,2.17
2024-04-15T02:44:24.469Z,2.15
2024-04-15T02:46:51.500Z,2.25
2024-04-15T02:49:18.332Z,2.40
2024-04-15T02:51:45.224Z,2.70
2024-04-15T02:54:12.194Z,2.63
2024-04-15T02:56:39.170Z,2.80
2024-04-15T02:59:05.971Z,2.72
2024-04-15T03:01:32.892Z,2.72
2024-04-15T03:04:00.143Z,4.05
2024-04-15T03:06:27.256Z,8.35
2024-04-15T03:08:54.225Z,14.05
2024-04-15T03:11:21.072Z,13.15
2024-04-15T03:13:48.494Z,21.05
2024-04-15T03:16:20.120Z,23.35
2024-04-15T03:18:53.175Z,28.17
2024-04-15T03:21:20.082Z,32.00
2024-04-15T03:23:47.457Z,33.75
2024-04-15T03:26:14.350Z,33.25
2024-04-15T03:28:41.235Z,32.20
2024-04-15T03:31:08.302Z,29.23
2024-04-15T03:33:36.030Z,28.42
2024-04-15T03:36:03.177Z,28.70
2024-04-15T03:38:29.993Z,27.48
2024-04-15T03:40:56.821Z,26.10
2024-04-15T03:43:23.684Z,24.45
2024-04-15T03:45:50.518Z,21.70
2024-04-15T03:48:17.543Z,20.98
2024-04-15T03:50:44.574Z,20.30
2024-04-15T03:53:11.703Z,20.55
2024-04-15T03:55:38.796Z,19.10
2024-04-15T03:58:05.741Z,20.63
2024-04-15T04:00:32.633Z,20.52
2024-04-15T04:02:59.491Z,21.25
2024-04-15T04:05:26.283Z,20.33
2024-04-15T04:07:53.346Z,19.42
2024-04-15T04:10:21.274Z,20.60
2024-04-15T04:12:48.340Z,20.50
2024-04-15T04:15:15.635Z,16.45
2024-04-15T04:17:45.337Z,15.70
2024-04-15T04:20:13.128Z,15.00
2024-04-15T04:22:40.102Z,13.10
2024-04-15T04:25:07.195Z,12.32
2024-04-15T04:27:34.334Z,11.65
2024-04-15T04:30:01.440Z,12.85
2024-04-15T04:32:28.342Z,13.38
2024-04-15T04:34:55.893Z,12.93
2024-04-15T04:37:24.944Z,12.50
2024-04-15T04:39:52.373Z,11.38
2024-04-15T04:42:19.188Z,8.05
2024-04-15T04:44:46.010Z,7.18
2024-04-15T04:47:13.167Z,7.00
2024-04-15T04:49:40.051Z,6.78
2024-04-15T04:52:07.214Z,6.30
2024-04-15T04:54:34.063Z,6.63
2024-04-15T04:57:01.044Z,6.88
2024-04-15T04:59:28.087Z,6.03
2024-04-15T05:01:55.006Z,4.22
2024-04-15T05:04:22.161Z,4.03
2024-04-15T05:06:48.998Z,3.90
2024-04-15T05:09:15.918Z,4.20
2024-04-15T05:11:42.793Z,4.43
2024-04-15T05:14:09.624Z,4.43
2024-04-15T05:16:37.515Z,4.93
2024-04-15T05:19:04.422Z,5.68
2024-04-15T05:21:33.255Z,7.00
2024-04-15T05:24:00.511Z,6.15
2024-04-15T05:26:27.476Z,5.72
2024-04-15T05:28:54.312Z,5.82
2024-04-15T05:31:21.348Z,5.35
2024-04-15T05:33:48.869Z,6.32
2024-04-15T05:36:15.833Z,6.05
2024-04-15T05:38:42.700Z,6.32
2024-04-15T05:41:10.101Z,5.65
2024-04-15T05:43:36.922Z,5.78
2024-04-15T05:46:06.712Z,5.45
2024-04-15T05:48:33.929Z,4.68
2024-04-15T05:51:00.842Z,4.50
2024-04-15T05:53:27.948Z,4.47
2024-04-15T05:55:54.894Z,4.32
2024-04-15T05:58:22.276Z,4.07
2024-04-15T06:00:50.058Z,3.65
2024-04-15T06:03:17.114Z,3.80
2024-04-15T06:05:43.931Z,3.92
2024-04-15T06:08:11.834Z,3.90
2024-04-15T06:10:38.976Z,3.85
2024-04-15T06:13:06.004Z,3.75
2024-04-15T06:15:38.724Z,3.60
2024-04-15T06:18:08.961Z,3.35
2024-04-15T06:20:36.011Z,3.22
2024-04-15T06:23:03.073Z,3.85
2024-04-15T06:25:29.960Z,3.83
2024-04-15T06:27:56.969Z,6.05
2024-04-15T06:30:23.872Z,5.68
2024-04-15T06:32:51.432Z,5.57
2024-04-15T06:35:18.347Z,5.95
2024-04-15T06:37:45.332Z,5.60
2024-04-15T06:40:12.205Z,4.93
2024-04-15T06:42:39.394Z,6.32
2024-04-15T06:45:06.500Z,7.03
2024-04-15T06:47:33.331Z,7.85
2024-04-15T06:50:00.257Z,6.68
2024-04-15T06:52:27.706Z,7.40
2024-04-15T06:54:55.486Z,6.28
2024-04-15T06:57:22.475Z,9.25
2024-04-15T06:59:49.626Z,8.15
2024-04-15T07:02:21.096Z,7.07
2024-04-15T07:04:54.890Z,4.00
2024-04-15T07:07:27.207Z,5.07
2024-04-15T07:09:57.526Z,6.65
2024-04-15T07:12:25.135Z,5.35
2024-04-15T07:14:52.081Z,5.45
2024-04-15T07:17:18.926Z,5.05
2024-04-15T07:19:46.291Z,6.20
2024-04-15T07:22:13.571Z,4.82
2024-04-15T07:24:40.543Z,4.38
2024-04-15T07:27:07.505Z,6.00
2024-04-15T07:29:34.294Z,4.63
2024-04-15T07:32:01.121Z,4.80
2024-04-15T07:34:28.156Z,5.28
2024-04-15T07:36:55.033Z,5.68
2024-04-15T07:39:22.217Z,5.10
2024-04-15T07:41:49.119Z,4.68
2024-04-15T07:44:16.179Z,4.65
2024-04-15T07:46:43.191Z,3.35
2024-04-15T07:49:10.162Z,3.95
2024-04-15T07:51:37.222Z,5.43
2024-04-15T07:54:04.364Z,3.97
2024-04-15T07:56:31.312Z,2.63
2024-04-15T07:58:58.268Z,3.38
2024-04-15T08:01:25.497Z,3.55
2024-04-15T08:03:52.551Z,5.13
2024-04-15T08:06:19.405Z,4.57
2024-04-15T08:08:46.603Z,4.43
2024-04-15T08:11:13.786Z,4.75
2024-04-15T08:13:40.931Z,4.28
2024-04-15T08:16:07.977Z,4.55
2024-04-15T08:18:34.899Z,4.18
2024-04-15T08:21:01.714Z,3.90
2024-04-15T08:23:28.585Z,5.53
2024-04-15T08:25:57.286Z,4.70
2024-04-15T08:28:25.140Z,4.47
2024-04-15T08:30:52.293Z,4.30
2024-04-15T08:33:19.321Z,4.90
2024-04-15T08:35:46.224Z,4.68
2024-04-15T08:38:13.273Z,4.65
2024-04-15T08:40:47.154Z,4.65
2024-04-15T08:43:18.082Z,4.85
2024-04-15T08:45:46.601Z,4.95
2024-04-15T08:48:15.120Z,4.63
2024-04-15T08:50:41.997Z,5.00
2024-04-15T08:53:08.884Z,5.03
2024-04-15T08:55:35.828Z,4.93
2024-04-15T08:58:03.159Z,4.75
2024-04-15T09:00:31.267Z,4.75
2024-04-15T09:02:59.057Z,4.63
2024-04-15T09:05:26.056Z,4.53
2024-04-15T09:07:53.217Z,4.25
2024-04-15T09:10:20.665Z,3.67
2024-04-15T09:12:49.217Z,4.13
2024-04-15T09:15:17.206Z,3.85
2024-04-15T09:17:44.404Z,3.92
2024-04-15T09:20:11.974Z,3.95
2024-04-15T09:22:39.239Z,4.03
2024-04-15T09:25:06.961Z,4.15
2024-04-15T09:27:34.296Z,3.75
2024-04-15T09:30:04.291Z,4.00
2024-04-15T09:32:31.891Z,4.05
2024-04-15T09:35:01.066Z,4.15
2024-04-15T09:37:28.759Z,4.18
2024-04-15T09:39:56.382Z,3.53
2024-04-15T09:42:23.443Z,3.85
2024-04-15T09:44:50.826Z,4.10
2024-04-15T09:47:19.561Z,3.95
2024-04-15T09:49:48.391Z,3.42
2024-04-15T09:52:24.101Z,3.80
2024-04-15T09:54:56.543Z,3.38
2024-04-15T09:57:27.595Z,3.40
2024-04-15T09:59:58.943Z,3.78
2024-04-15T10:02:28.942Z,3.40
2024-04-15T10:05:19.213Z,3.30
2024-04-15T10:07:51.375Z,3.20
2024-04-15T10:10:21.062Z,3.17
2024-04-15T10:12:52.652Z,3.25
2024-04-15T10:15:20.888Z,3.40
2024-04-15T10:18:16.330Z,3.50
2024-04-15T10:20:45.050Z,3.00
2024-04-15T10:23:15.802Z,3.38
2024-04-15T10:25:43.873Z,2.92
2024-04-15T10:28:12.938Z,2.88
2024-04-15T10:30:41.888Z,3.10
2024-04-15T10:33:15.005Z,2.85
2024-04-15T10:35:42.162Z,2.92
2024-04-15T10:38:10.588Z,2.90
2024-04-15T10:40:40.306Z,2.70
2024-04-15T10:43:07.862Z,2.85
2024-04-15T10:45:35.214Z,2.60
2024-04-15T10:48:02.781Z,2.90
2024-04-15T10:50:29.791Z,2.70
2024-04-15T10:52:56.898Z,2.50
2024-04-15T10:55:24.208Z,3.00
2024-04-15T10:57:51.723Z,2.40
2024-04-15T11:00:22.880Z,2.55
2024-04-15T11:02:54.015Z,2.58
2024-04-15T11:05:22.995Z,2.30
2024-04-15T11:07:52.796Z,2.20
2024-04-15T11:10:19.955Z,2.30
2024-04-15T11:12:52.847Z,2.25
2024-04-15T11:15:20.267Z,2.20
2024-04-15T11:17:48.306Z,2.47
2024-04-15T11:20:16.529Z,2.13
2024-04-15T11:22:43.751Z,2.10
2024-04-15T11:25:13.681Z,2.25
2024-04-15T11:27:58.843Z,2.00
2024-04-15T11:30:30.471Z,2.80
2024-04-15T11:32:59.686Z,2.38
2024-04-15T11:35:27.011Z,2.50
2024-04-15T11:37:55.440Z,2.28
2024-04-15T11:40:24.351Z,2.08
2024-04-15T11:42:53.187Z,2.08
2024-04-15T11:45:20.336Z,2.00
2024-04-15T11:47:55.998Z,1.95
2024-04-15T11:50:23.286Z,2.55
2024-04-15T11:52:50.437Z,3.15
2024-04-15T11:55:22.756Z,3.40
2024-04-15T11:57:50.696Z,2.15
2024-04-15T12:00:17.630Z,2.30
2024-04-15T12:02:46.283Z,2.53
2024-04-15T12:05:14.465Z,2.35
2024-04-15T12:07:42.751Z,2.60
2024-04-15T12:15:06.057Z,4.80
2024-04-15T12:17:34.347Z,9.02
2024-04-15T12:20:04.127Z,4.63
2024-04-15T12:22:31.424Z,2.78
2024-04-15T12:25:07.734Z,6.60
2024-04-15T12:27:39.125Z,3.13
2024-04-15T12:30:08.465Z,3.40
2024-04-15T12:32:35.875Z,3.90
2024-04-15T12:35:02.805Z,4.75
2024-04-15T12:37:29.873Z,5.05
2024-04-15T12:39:56.769Z,5.53
2024-04-15T12:42:23.646Z,4.40
2024-04-15T12:44:50.587Z,4.15
2024-04-15T12:47:17.606Z,4.55
2024-04-15T12:49:44.663Z,5.68
2024-04-15T12:52:11.698Z,5.38
2024-04-15T12:54:38.502Z,5.78
2024-04-15T12:57:05.542Z,5.25
2024-04-15T12:59:32.503Z,10.57
2024-04-15T13:02:07.092Z,6.53
2024-04-15T13:04:36.684Z,6.55
2024-04-15T13:07:04.391Z,5.35
2024-04-15T13:09:31.467Z,6.15
2024-04-15T13:11:58.383Z,5.15
2024-04-15T13:14:25.225Z,4.55
2024-04-15T13:16:52.174Z,6.18
2024-04-15T13:19:19.303Z,5.03
2024-04-15T13:21:46.374Z,4.07
2024-04-15T13:24:13.455Z,4.35
2024-04-15T13:26:40.453Z,5.57
2024-04-15T13:29:07.393Z,5.53
2024-04-15T13:31:34.263Z,4.40
2024-04-15T13:34:01.945Z,4.55
2024-04-15T13:36:29.218Z,3.50
2024-04-15T13:38:56.442Z,2.97
2024-04-15T13:41:23.512Z,2.72
2024-04-15T13:43:50.484Z,3.30
2024-04-15T13:46:17.535Z,3.13
2024-04-15T13:48:44.587Z,2.83
2024-04-15T13:51:11.384Z,3.05
2024-04-15T13:53:38.224Z,3.50
2024-04-15T13:56:05.473Z,3.10
2024-04-15T13:58:32.546Z,3.00
2024-04-15T14:01:00.097Z,3.20
2024-04-15T14:03:27.136Z,3.13
2024-04-15T14:05:54.405Z,3.17
2024-04-15T14:08:21.942Z,4.25
2024-04-15T14:10:49.881Z,4.20
2024-04-15T14:13:18.466Z,3.47
2024-04-15T14:15:45.558Z,3.47
2024-04-15T14:18:12.508Z,3.03
2024-04-15T14:20:39.453Z,4.05
2024-04-15T14:23:06.736Z,3.05
2024-04-15T14:25:33.829Z,3.10
2024-04-15T14:28:01.033Z,3.45
2024-04-15T14:30:27.935Z,3.55
2024-04-15T14:32:55.021Z,3.63
2024-04-15T14:35:22.112Z,3.55
2024-04-15T14:37:50.970Z,3.60
2024-04-15T14:40:23.175Z,4.40
2024-04-15T14:42:52.023Z,4.82
2024-04-15T14:45:19.099Z,5.40
2024-04-15T14:47:46.911Z,4.40
2024-04-15T14:50:14.468Z,5.15
2024-04-15T14:52:41.534Z,6.32
2024-04-15T14:55:09.555Z,5.22
2024-04-15T14:57:36.582Z,5.70
2024-04-15T15:00:05.725Z,5.70
2024-04-15T15:02:32.681Z,6.70
2024-04-15T15:04:59.588Z,6.28
2024-04-15T15:07:27.088Z,7.80
2024-04-15T15:09:54.168Z,8.32
2024-04-15T15:12:21.619Z,8.00
2024-04-15T15:14:49.833Z,7.95
2024-04-15T15:19:44.643Z,7.10
2024-04-15T15:22:14.303Z,7.78
2024-04-15T15:24:41.445Z,8.68
2024-04-15T15:27:08.822Z,8.77
2024-04-15T15:29:36.007Z,10.27
2024-04-15T15:32:03.073Z,10.05
2024-04-15T15:34:30.022Z,11.00
2024-04-15T15:36:59.854Z,11.18
2024-04-15T15:39:26.704Z,10.50
2024-04-15T15:41:53.956Z,9.60
2024-04-15T15:44:20.785Z,9.02
2024-04-15T15:46:47.650Z,8.20
2024-04-15T15:49:14.495Z,6.82
2024-04-15T15:51:42.442Z,8.23
2024-04-15T15:54:09.877Z,8.25
2024-04-15T15:56:39.288Z,7.78
2024-04-15T15:59:06.702Z,6.95
2024-04-15T16:01:35.079Z,8.18
2024-04-15T16:04:02.129Z,8.23
2024-04-15T16:06:29.121Z,7.38
2024-04-15T16:08:56.361Z,6.72
2024-04-15T16:11:31.480Z,7.60
2024-04-15T16:14:10.585Z,7.70
2024-04-15T16:16:37.909Z,6.55
2024-04-15T16:19:07.025Z,10.73
2024-04-15T16:21:34.221Z,8.15
2024-04-15T16:24:01.012Z,7.22
2024-04-15T16:26:27.830Z,7.75
2024-04-15T16:28:54.731Z,8.02
2024-04-15T16:31:21.850Z,6.82
2024-04-15T16:33:48.861Z,6.95
2024-04-15T16:36:15.942Z,7.00
2024-04-15T16:38:42.724Z,6.00
2024-04-15T16:41:09.673Z,6.45
2024-04-15T16:43:36.484Z,6.30
2024-04-15T16:46:03.439Z,5.57
2024-04-15T16:48:30.805Z,5.28
2024-04-15T16:50:57.674Z,5.75
2024-04-15T16:53:24.511Z,5.30
2024-04-15T16:55:52.813Z,6.05
2024-04-15T16:58:21.749Z,6.75
2024-04-15T17:00:49.811Z,5.43
2024-04-15T17:03:16.854Z,5.45
2024-04-15T17:05:45.233Z,5.72
2024-04-15T17:08:12.534Z,5.85
2024-04-15T17:10:39.514Z,5.75
2024-04-15T17:13:07.115Z,5.88
2024-04-15T17:15:34.398Z,5.75
2024-04-15T17:18:04.252Z,5.70
2024-04-15T17:20:31.744Z,5.40
2024-04-15T17:22:58.984Z,4.78
2024-04-15T17:25:25.942Z,4.88
2024-04-15T17:27:53.035Z,4.80
2024-04-15T17:30:20.209Z,4.65
2024-04-15T17:32:47.153Z,4.40
2024-04-15T17:35:14.080Z,5.20
2024-04-15T17:37:42.265Z,5.18
2024-04-15T17:40:10.259Z,5.25
2024-04-15T17:42:37.132Z,5.18
2024-04-15T17:45:04.586Z,5.47
2024-04-15T17:47:31.634Z,6.30
2024-04-15T17:49:58.874Z,5.32
2024-04-15T17:52:26.018Z,6.03
2024-04-15T17:54:53.117Z,6.22
2024-04-15T17:57:20.474Z,6.70
2024-04-15T17:59:47.331Z,6.70
2024-04-15T18:02:14.297Z,5.90
2024-04-15T18:04:41.272Z,6.05
2024-04-15T18:07:11.219Z,5.88
2024-04-15T18:09:39.664Z,65.80
2024-04-15T18:12:08.735Z,12.27
2024-04-15T18:14:35.964Z,7.47
2024-04-15T18:17:03.513Z,6.93
2024-04-15T18:19:30.751Z,7.55
2024-04-15T18:21:57.655Z,7.80
2024-04-15T18:24:28.698Z,9.02
2024-04-15T18:26:56.015Z,10.30
2024-04-15T18:29:22.899Z,9.93
2024-04-15T18:31:49.919Z,8.90
2024-04-15T18:34:16.910Z,10.50
2024-04-15T18:36:45.908Z,10.27
2024-04-15T18:39:13.273Z,9.15
2024-04-15T18:41:40.283Z,9.80
2024-04-15T18:44:07.236Z,10.57
2024-04-15T18:46:34.966Z,9.38
2024-04-15T18:49:02.122Z,9.60
2024-04-15T18:51:29.145Z,14.00
2024-04-15T18:53:57.356Z,8.93
2024-04-15T18:56:25.091Z,9.13
2024-04-15T18:58:52.368Z,7.65
2024-04-15T19:01:19.362Z,8.23
2024-04-15T19:03:46.438Z,8.05
2024-04-15T19:06:13.629Z,8.75
2024-04-15T19:08:40.602Z,8.77
2024-04-15T19:11:07.674Z,8.13
2024-04-15T19:13:34.722Z,9.02
2024-04-15T19:16:01.719Z,7.72
2024-04-15T19:18:29.284Z,7.53
2024-04-15T19:20:56.286Z,8.35
2024-04-15T19:23:23.136Z,7.90
2024-04-15T19:25:50.249Z,8.05
2024-04-15T19:28:17.151Z,9.15
2024-04-15T19:30:44.066Z,8.57
2024-04-15T19:33:11.056Z,8.23
2024-04-15T19:35:38.019Z,8.80
2024-04-15T19:38:05.183Z,8.50
2024-04-15T19:40:32.250Z,8.18
2024-04-15T19:43:00.384Z,8.77
2024-04-15T19:45:27.298Z,9.27
2024-04-15T19:47:54.488Z,8.55
2024-04-15T19:50:21.987Z,8.73
2024-04-15T19:52:48.813Z,9.25
2024-04-15T19:55:17.187Z,8.45
2024-04-15T19:57:45.527Z,8.65
2024-04-15T20:02:40.724Z,8.00
2024-04-15T20:05:08.566Z,8.43
2024-04-15T20:07:37.099Z,9.32
2024-04-15T20:10:04.403Z,9.82
2024-04-15T20:12:32.818Z,9.23
2024-04-15T20:15:02.645Z,9.00
2024-04-15T20:17:44.179Z,9.70
2024-04-15T20:20:16.171Z,10.25
2024-04-15T20:22:43.793Z,8.85
2024-04-15T20:25:11.922Z,8.40
2024-04-15T20:27:38.941Z,9.20
2024-04-15T20:30:06.894Z,9.10
2024-04-15T20:32:34.427Z,7.72
2024-04-15T20:35:01.815Z,8.13
2024-04-15T20:37:29.079Z,8.25
2024-04-15T20:39:56.260Z,10.07
2024-04-15T20:42:23.590Z,9.27
2024-04-15T20:44:52.233Z,8.57
2024-04-15T20:47:20.367Z,8.85
2024-04-15T20:49:47.243Z,8.57
2024-04-15T20:52:14.193Z,8.35
2024-04-15T20:54:41.097Z,8.18
2024-04-15T20:57:09.277Z,7.72
2024-04-15T20:59:36.181Z,7.90
2024-04-15T21:02:03.270Z,7.93
2024-04-15T21:04:30.270Z,8.00
2024-04-15T21:06:57.355Z,8.55
2024-04-15T21:09:24.250Z,8.50
2024-04-15T21:11:51.254Z,8.45
2024-04-15T21:14:18.091Z,9.93
2024-04-15T21:16:46.216Z,9.35
2024-04-15T21:19:13.323Z,16.35
2024-04-15T21:21:40.463Z,10.38
2024-04-15T21:24:07.840Z,11.32
2024-04-15T21:26:34.755Z,11.25
2024-04-15T21:29:02.123Z,11.75
2024-04-15T21:31:29.180Z,12.93
2024-04-15T21:33:56.243Z,13.57
2024-04-15T21:36:23.257Z,14.60
2024-04-15T21:38:51.697Z,12.95
2024-04-15T21:41:18.602Z,13.43
2024-04-15T21:43:45.494Z,10.90
2024-04-15T21:46:12.719Z,11.43
2024-04-15T21:48:39.686Z,12.00
2024-04-15T21:51:06.664Z,13.10
2024-04-15T21:53:33.551Z,12.57
2024-04-15T21:56:00.405Z,11.30
2024-04-15T21:58:27.324Z,10.90
2024-04-15T22:00:54.642Z,11.20
2024-04-15T22:03:21.530Z,10.90
2024-04-15T22:05:49.162Z,12.70
2024-04-15T22:08:16.363Z,12.25
2024-04-15T22:10:43.781Z,15.18
2024-04-15T22:13:11.474Z,11.40
2024-04-15T22:15:38.628Z,11.55
2024-04-15T22:18:08.345Z,12.00
2024-04-15T22:20:35.562Z,12.05
2024-04-15T22:23:02.932Z,11.75
2024-04-15T22:25:30.241Z,9.75
2024-04-15T22:27:57.266Z,10.73
2024-04-15T22:30:24.372Z,12.23
2024-04-15T22:32:51.359Z,10.63
2024-04-15T22:35:18.682Z,10.85
2024-04-15T22:37:45.809Z,10.30
2024-04-15T22:40:12.787Z,10.60
2024-04-15T22:42:39.800Z,10.82
2024-04-15T22:45:07.569Z,10.95
2024-04-15T22:47:34.898Z,10.55
2024-04-15T22:50:02.081Z,11.13
2024-04-15T22:52:29.001Z,11.10
2024-04-15T22:54:56.011Z,11.88
2024-04-15T22:57:22.956Z,11.10
2024-04-15T22:59:50.308Z,11.82
2024-04-15T23:02:17.541Z,12.73
2024-04-15T23:04:44.763Z,13.38
2024-04-15T23:07:11.669Z,12.57
2024-04-15T23:09:38.746Z,12.35
2024-04-15T23:12:05.736Z,11.35
2024-04-15T23:14:33.196Z,10.60
2024-04-15T23:17:00.164Z,10.40
2024-04-15T23:19:27.133Z,11.00
2024-04-15T23:21:54.001Z,10.82
2024-04-15T23:24:20.915Z,10.82
2024-04-15T23:26:47.873Z,11.15
2024-04-15T23:29:14.722Z,11.68
2024-04-15T23:31:41.616Z,10.57
2024-04-15T23:34:08.549Z,12.15
2024-04-15T23:36:42.307Z,11.40
2024-04-15T23:39:09.328Z,11.20
2024-04-15T23:41:36.287Z,12.10
2024-04-15T23:44:03.208Z,12.93
2024-04-15T23:46:30.113Z,12.18
2024-04-15T23:48:57.110Z,12.52
2024-04-15T23:51:23.930Z,12.60
2024-04-15T23:53:51.054Z,15.43
2024-04-15T23:56:17.860Z,14.68
2024-04-15T23:58:45.313Z,14.00
